Burkburnett, Texas
Current Conditions -  °F | °C
As of 10:52 PM on Saturday 22 Nov 2014 (Local Time) from KSPS Reporting Station
Moderate Fog Moderate Fog  
Wind Chill: 51°   Ceiling: Unl
Heat Index: 51°   Visibility: 0.5mi
Dew Point: 50°   Wind: 0mph
Humidity: 96%   Direction: NA
Pressure: 29.69"   Gusts: NA
Location:  34.08°N, 98.56°W
Report Text: KSPS 230452Z AUTO 00000KT 1/2SM FG CLR 11/10 A2969 RMK AO2 SLP050 T01060100 TSNO
Loading
Personal Weather Stations






























Interactive Weather Map New forecast layout! Learn more

10-Day Weather Forecast

Advertisements
Track Severe Weather on mobile